Aviation Digital Data Service (ADDS)

Output produced by METARs form (0802 UTC 11 December 2016)
found at http://aviationweather.gov/adds/metars/
 
KCRG 110541Z 1106/1206 03006KT P6SM VCSH SCT025 OVC035 
     FM111400 10010KT P6SM SCT025 BKN040 
     FM111900 13010KT P6SM VCSH BKN040 
     FM112300 09003KT P6SM VCSH SCT015 BKN025